Řízení letového provozu České republiky  
Aktualizace dat:  22.10.2014 06:15:28 UTC English version
   METEO Zobrazení stránky:  22.10.2014 06:18:47 UTC  
vysvětlivky
METAR EDDB 220550Z 24010KT 9999 -RA FEW003 OVC018 08/07 Q1002 TEMPO RA BKN014=
METAR EDDC 220550Z 26010KT 9999 -RA BKN017 07/05 Q1004 TEMPO 27015G25KT SHRA BKN013=
METAR EDDE 220550Z 26014KT 9999 SCT010 BKN014 BKN020 05/04 Q1007 TEMPO 26015G25KT BKN009=
METAR EDDF 220550Z 25013KT 9999 -SHRA FEW011 BKN025TCU 07/04 Q1014 NOSIG=
METAR EDDM 220550Z 26012G23KT 9999 -RA BKN020 BKN040 06/03 Q1013 NOSIG=
METAR EDDN 220550Z 28017KT 9999 -RA SCT015 BKN024 06/04 Q1011 RERA NOSIG=
METAR COR EDDP 220550Z 26017KT 9999 -RA SCT013 BKN021 BKN037 06/05 Q1005 BECMG 26015G25KT RA BKN013=
METAR EDDT 220550Z 26009KT 9999 -RA OVC015 08/07 Q1002 TEMPO RA BKN014=
METAR EDQM 220550Z 25014KT 9000 -RA BKN011 03/02 Q1007=
METAR EPBY 220600Z 08004KT 2200 -RA BR OVC004 11/10 Q1000 =
METAR EPGD 220600Z 12007KT 2000 -RA BR FEW002 BKN003 09/09 Q1002 =
METAR EPKK 220600Z 26012KT 8000 -SHRA FEW008 SCT017CB BKN033 09/08 Q1002 =
METAR EPKT 220600Z 27009KT 9999 -RA FEW004 SCT006 BKN009 08/08 Q1002 =
METAR EPLL 220600Z 00000KT 6000 SCT014 BKN046 10/08 Q1000 =
METAR EPPO 220600Z 27013KT 9999 -RA BKN006 09/08 Q1000 =
METAR EPRZ 220600Z 10005KT CAVOK 08/08 Q1001 =
METAR EPWA 220600Z 11008KT 8000 NSC 10/09 Q1001 NOSIG=
METAR EPWR 220600Z 28010KT 9999 -RA BKN020 09/07 Q1003 =
METAR LHBP 220600Z 30012KT 6000 -RA FEW008 SCT015 OVC035 09/08 Q1002 NOSIG=
METAR LHSM 220545Z 28008KT 8000 TSRA BKN016 FEW020CB OVC030 07/06 Q1007 NOSIG=
METAR LKCV 220600Z 27012G21KT 9999 OVC040 09/06 Q1006 NOSIG=
METAR LKKB 220600Z 26012KT 9999 SCT045 BKN050 07/04 Q1006 NOSIG =
METAR LKKU 220600Z 28006KT 220V350 9000 -RA FEW019 BKN023 OVC033 09/07 Q1005 RMK REG QNH 1002=
METAR LKKV 220600Z 26011KT 9999 -RA SCT008 BKN015 04/03 Q1006 RMK REG QNH 1002=
METAR LKLN 220600Z AUTO 24007KT //// -RA FEW017 OVC027 07/04 Q1008=
METAR LKMT 220600Z 23007KT 9000 -RA BKN034 09/07 Q1003 NOSIG RMK REG QNH 1002=
METAR LKNA 220600Z 28012KT 9999 FEW020 BKN040 OVC100 06/04 Q1006 NOSIG=
METAR LKPD 220600Z 27012KT 9999 FEW020 OVC040 08/04 Q1005 NOSIG =
METAR LKPR 220600Z 24015KT 9999 FEW023 BKN043 06/03 Q1006 NOSIG RMK REG QNH 1002=
METAR LKTB 220600Z 28012KT 9999 -RA FEW023 SCT036 09/04 Q1005 NOSIG RMK REG QNH 1002=
METAR LKVO 220600Z 26012KT 9999 BKN048 07/04 Q1006=
METAR LOWI 220550Z 30006KT 250V360 9999 -SHRA FEW015 SCT030 BKN060 05/02 Q1013 WS R26 NOSIG=
METAR LOWL 220550Z 26020G30KT 9999 FEW034 SCT048 BKN170 07/03 Q1010 NOSIG=
METAR LOWS 220550Z 29010KT 240V310 9999 FEW022 SCT040 BKN060 06/01 Q1013 NOSIG=
METAR LOWW 220550Z 30017KT 9999 -RA FEW047 BKN066 09/03 Q1006 NOSIG=
METAR LZIB 220600Z 31014KT 9999 -RA BKN026 OVC048 09/05 Q1006 RERA NOSIG=
METAR LZKZ 220600Z 04005KT 4500 -RA FEW003 OVC010 10/10 Q1001 TEMPO RA BKN003 OVC010=
METAR LZPP 220600Z 29012KT 9999 -RA BKN030 OVC040 09/06 Q1005=
METAR LZSL 220600Z 15003KT 9000 -RA SCT002 OVC029 09/08 Q1002=
METAR LZTT 220600Z 26019KT 9999 -RA FEW008 BKN016 OVC028 07/05 Q1001 NOSIG=
METAR LZZI 220600Z 24006KT 8000 -RA BKN029 OVC036 08/07 Q1003=